CheckWX is a tool to help pilots better visualize weather data.  It is not intended as a substitute for an official pre-flight weather briefing.

08:03:15 UTC

GVNP TAF
Praia International Airport
Praia, Cape Verde
TAF GVNP 190500Z 1906/2012 02012KT CAVOK

Mar-19@
06:00 UTC

Mar-19 @ 06:00 UTC

Mar-20@
12:00 UTC

Mar-20 @ 12:00 UTC

TAF GVNP 190500Z 1906/2012 02012KT CAVOK
Wind
  • 020° at 12 KTS
Conditions
No significant weather
Cloud Levels
  • No significant clouds